createdAt,value
2022-08-09T00:04:10.778Z,1.88
2022-08-09T00:07:49.656Z,1.70
2022-08-09T00:12:03.536Z,1.92
2022-08-09T00:16:06.815Z,1.50
2022-08-09T00:20:12.075Z,1.70
2022-08-09T00:24:14.904Z,1.58
2022-08-09T00:28:17.097Z,1.55
2022-08-09T00:32:26.820Z,1.70
2022-08-09T00:36:30.672Z,1.50
2022-08-09T00:40:33.002Z,1.63
2022-08-09T00:44:40.541Z,1.73
2022-08-09T00:48:47.553Z,1.70
2022-08-09T00:52:55.098Z,1.55
2022-08-09T00:56:57.154Z,1.65
2022-08-09T01:00:59.402Z,1.80
2022-08-09T01:05:14.017Z,2.00
2022-08-09T01:09:48.477Z,1.85
2022-08-09T01:14:01.639Z,1.75
2022-08-09T01:18:14.202Z,1.90
2022-08-09T01:22:25.285Z,1.77
2022-08-09T01:26:54.726Z,1.90
2022-08-09T01:31:00.557Z,1.98
2022-08-09T01:35:29.123Z,1.88
2022-08-09T01:39:35.681Z,1.70
2022-08-09T01:43:47.962Z,1.70
2022-08-09T01:47:56.024Z,2.00
2022-08-09T01:52:07.301Z,1.98
2022-08-09T01:56:12.331Z,1.95
2022-08-09T02:00:34.974Z,1.73
2022-08-09T02:04:40.595Z,2.20
2022-08-09T02:08:57.997Z,2.00
2022-08-09T02:13:06.184Z,2.13
2022-08-09T02:17:29.365Z,2.30
2022-08-09T02:21:39.444Z,2.33
2022-08-09T02:25:52.467Z,2.03
2022-08-09T02:29:57.262Z,2.05
2022-08-09T02:34:41.345Z,2.10
2022-08-09T02:38:54.552Z,2.30
2022-08-09T02:43:03.013Z,2.20
2022-08-09T02:47:11.263Z,2.60
2022-08-09T02:51:18.317Z,2.13
2022-08-09T02:55:46.710Z,2.10
2022-08-09T03:00:20.801Z,2.10
2022-08-09T03:04:20.012Z,2.33
2022-08-09T03:08:45.626Z,2.38
2022-08-09T03:12:51.901Z,2.30
2022-08-09T03:16:55.449Z,2.67
2022-08-09T03:21:02.932Z,2.72
2022-08-09T03:25:26.731Z,2.50
2022-08-09T03:29:57.388Z,2.63
2022-08-09T03:33:58.798Z,2.47
2022-08-09T03:38:06.193Z,2.70
2022-08-09T03:42:12.845Z,2.53
2022-08-09T03:46:29.223Z,2.42
2022-08-09T03:50:35.043Z,2.30
2022-08-09T03:54:40.460Z,2.60
2022-08-09T03:58:43.209Z,2.83
2022-08-09T04:02:52.718Z,2.30
2022-08-09T04:06:58.082Z,2.45
2022-08-09T04:11:01.396Z,2.38
2022-08-09T04:15:11.442Z,2.35
2022-08-09T04:19:15.954Z,3.20
2022-08-09T04:23:32.637Z,4.10
2022-08-09T04:27:41.079Z,2.67
2022-08-09T04:31:47.721Z,2.55
2022-08-09T04:35:51.044Z,3.17
2022-08-09T04:39:54.863Z,2.72
2022-08-09T04:44:06.665Z,2.83
2022-08-09T04:48:16.997Z,2.80
2022-08-09T04:52:29.728Z,2.20
2022-08-09T04:56:37.326Z,2.50
2022-08-09T05:00:48.546Z,2.15
2022-08-09T05:04:55.158Z,2.30
2022-08-09T05:09:00.462Z,3.00
2022-08-09T05:13:06.009Z,2.63
2022-08-09T05:17:15.220Z,2.50
2022-08-09T05:21:46.610Z,2.80
2022-08-09T05:25:51.055Z,2.42
2022-08-09T05:29:53.338Z,2.95
2022-08-09T05:33:56.325Z,2.55
2022-08-09T05:37:59.223Z,2.88
2022-08-09T05:42:04.651Z,2.47
2022-08-09T05:46:08.057Z,2.38
2022-08-09T05:50:35.156Z,2.45
2022-08-09T05:54:35.144Z,1.90
2022-08-09T05:58:37.218Z,2.20
2022-08-09T06:02:46.535Z,1.70
2022-08-09T06:06:49.868Z,2.05
2022-08-09T06:10:54.957Z,1.73
2022-08-09T06:15:00.912Z,1.70
2022-08-09T06:19:04.365Z,1.77
2022-08-09T06:23:08.365Z,1.90
2022-08-09T06:27:15.793Z,1.80
2022-08-09T06:31:18.058Z,2.10
2022-08-09T06:35:55.746Z,1.70
2022-08-09T06:40:00.648Z,2.22
2022-08-09T06:44:06.038Z,1.73
2022-08-09T06:48:09.178Z,1.88
2022-08-09T06:52:12.280Z,1.60
2022-08-09T06:56:18.064Z,2.13
2022-08-09T07:00:50.248Z,1.92
2022-08-09T07:04:42.347Z,1.80
2022-08-09T07:08:44.966Z,1.80
2022-08-09T07:12:57.254Z,1.77
2022-08-09T07:17:00.000Z,2.00
2022-08-09T07:21:02.084Z,1.80
2022-08-09T07:25:05.520Z,1.63
2022-08-09T07:29:13.441Z,1.67
2022-08-09T07:33:16.702Z,1.92
2022-08-09T07:37:18.867Z,2.08
2022-08-09T07:41:24.333Z,1.95
2022-08-09T07:45:39.662Z,1.80
2022-08-09T07:50:04.278Z,2.03
2022-08-09T07:54:08.573Z,2.08
2022-08-09T07:58:14.333Z,1.60
2022-08-09T08:02:19.181Z,1.80
2022-08-09T08:06:21.644Z,1.80
2022-08-09T08:10:34.743Z,1.90
2022-08-09T08:14:37.805Z,1.65
2022-08-09T08:18:39.893Z,1.65
2022-08-09T08:22:48.581Z,1.67
2022-08-09T08:26:56.079Z,1.70
2022-08-09T08:30:58.646Z,1.40
2022-08-09T08:35:00.917Z,1.95
2022-08-09T08:39:04.270Z,1.70
2022-08-09T08:43:13.161Z,1.70
2022-08-09T08:47:15.929Z,1.50
2022-08-09T08:51:18.368Z,1.60
2022-08-09T08:55:23.567Z,1.70
2022-08-09T08:59:40.929Z,1.60
2022-08-09T09:03:50.495Z,1.73
2022-08-09T09:07:54.101Z,1.60
2022-08-09T09:11:59.231Z,1.40
2022-08-09T09:16:01.696Z,1.70
2022-08-09T09:20:11.009Z,1.58
2022-08-09T09:24:21.948Z,1.55
2022-08-09T09:29:01.669Z,1.30
2022-08-09T09:33:15.729Z,0.80
2022-08-09T09:37:31.806Z,0.93
2022-08-09T09:41:48.661Z,1.00
2022-08-09T09:45:57.516Z,1.00
2022-08-09T09:50:23.011Z,0.90
2022-08-09T09:54:25.536Z,0.95
2022-08-09T09:58:49.089Z,1.30
2022-08-09T10:02:51.266Z,0.90
2022-08-09T10:06:54.453Z,0.90
2022-08-09T10:10:56.633Z,1.00
2022-08-09T10:15:50.941Z,0.98
2022-08-09T10:19:39.477Z,1.08
2022-08-09T10:23:43.081Z,0.90
2022-08-09T10:27:56.887Z,0.93
2022-08-09T10:32:28.601Z,1.00
2022-08-09T10:36:22.843Z,0.80
2022-08-09T10:40:33.260Z,0.80
2022-08-09T10:44:39.925Z,1.00
2022-08-09T10:48:51.359Z,1.10
2022-08-09T10:53:10.364Z,0.90
2022-08-09T10:57:14.228Z,1.00
2022-08-09T11:03:11.318Z,0.90
2022-08-09T11:06:20.986Z,0.88
2022-08-09T11:10:47.303Z,1.00
2022-08-09T11:14:58.574Z,0.93
2022-08-09T11:19:01.179Z,1.02
2022-08-09T11:23:07.091Z,1.20
2022-08-09T11:28:03.745Z,1.08
2022-08-09T11:31:53.158Z,1.02
2022-08-09T11:35:59.500Z,1.00
2022-08-09T11:40:05.951Z,1.20
2022-08-09T11:44:08.669Z,1.17
2022-08-09T11:48:26.466Z,0.80
2022-08-09T11:52:59.155Z,0.98
2022-08-09T11:56:51.181Z,0.80
2022-08-09T12:01:08.987Z,1.05
2022-08-09T12:05:22.849Z,0.90
2022-08-09T12:09:27.996Z,0.93
2022-08-09T12:14:09.407Z,0.90
2022-08-09T12:18:01.538Z,0.88
2022-08-09T12:22:05.591Z,1.08
2022-08-09T12:26:07.670Z,0.98
2022-08-09T12:30:35.538Z,1.02
2022-08-09T12:34:42.213Z,1.00
2022-08-09T12:38:45.064Z,1.00
2022-08-09T12:42:50.489Z,1.00
2022-08-09T12:46:52.996Z,0.93
2022-08-09T12:50:55.927Z,1.40
2022-08-09T12:56:13.099Z,0.85
2022-08-09T12:59:57.626Z,1.10
2022-08-09T13:08:17.377Z,1.20
2022-08-09T13:12:23.589Z,0.90
2022-08-09T13:16:45.899Z,1.05
2022-08-09T13:21:03.875Z,1.20
2022-08-09T13:25:11.860Z,1.27
2022-08-09T13:29:20.612Z,0.88
2022-08-09T13:33:52.688Z,1.15
2022-08-09T13:37:55.950Z,0.90
2022-08-09T13:42:12.232Z,1.00
2022-08-09T13:47:14.440Z,1.20
2022-08-09T13:50:36.907Z,1.20
2022-08-09T13:54:41.778Z,0.93
2022-08-09T13:58:53.248Z,1.30
2022-08-09T14:03:04.462Z,1.20
2022-08-09T14:07:17.665Z,0.90
2022-08-09T14:11:20.181Z,1.20
2022-08-09T14:16:09.710Z,1.10
2022-08-09T14:19:44.368Z,0.98
2022-08-09T14:23:54.725Z,1.10
2022-08-09T14:27:59.046Z,1.35
2022-08-09T14:32:05.837Z,1.27
2022-08-09T14:36:19.628Z,1.00
2022-08-09T14:40:38.883Z,0.88
2022-08-09T14:44:48.827Z,0.80
2022-08-09T14:49:02.797Z,1.00
2022-08-09T14:53:11.475Z,0.80
2022-08-09T14:57:14.871Z,1.00
2022-08-09T15:01:20.610Z,0.90
2022-08-09T15:05:22.795Z,1.00
2022-08-09T15:10:03.128Z,0.93
2022-08-09T15:13:48.156Z,1.08
2022-08-09T15:17:58.760Z,0.80
2022-08-09T15:22:02.557Z,0.80
2022-08-09T15:26:05.188Z,0.82
2022-08-09T15:30:48.280Z,0.80
2022-08-09T15:34:35.618Z,0.85
2022-08-09T15:38:37.884Z,0.90
2022-08-09T15:42:42.603Z,1.00
2022-08-09T15:46:44.793Z,0.90
2022-08-09T15:50:50.393Z,0.90
2022-08-09T15:54:52.488Z,0.80
2022-08-09T15:58:54.645Z,1.00
2022-08-09T16:02:57.085Z,0.93
2022-08-09T16:06:59.193Z,1.00
2022-08-09T16:11:04.203Z,1.00
2022-08-09T16:16:10.350Z,1.00
2022-08-09T16:19:36.659Z,1.10
2022-08-09T16:23:38.980Z,1.08
2022-08-09T16:27:41.086Z,1.00
2022-08-09T16:32:18.317Z,0.85
2022-08-09T16:36:13.130Z,1.00
2022-08-09T16:40:29.557Z,1.02
2022-08-09T16:44:42.058Z,1.00
2022-08-09T16:48:53.774Z,0.95
2022-08-09T16:57:04.140Z,1.00
2022-08-09T17:01:07.392Z,1.17
2022-08-09T17:05:12.188Z,1.08
2022-08-09T17:09:45.403Z,1.08
2022-08-09T17:13:37.436Z,1.35
2022-08-09T17:17:50.326Z,1.08
2022-08-09T17:21:55.794Z,1.23
2022-08-09T17:26:01.751Z,1.10
2022-08-09T17:30:09.502Z,1.30
2022-08-09T17:34:59.748Z,1.20
2022-08-09T17:38:39.481Z,1.10
2022-08-09T17:42:43.244Z,1.10
2022-08-09T17:46:49.145Z,1.20
2022-08-09T17:50:59.327Z,1.20
2022-08-09T17:55:12.203Z,1.02
2022-08-09T17:59:16.922Z,1.10
2022-08-09T18:03:19.155Z,1.10
2022-08-09T18:07:24.089Z,1.10
2022-08-09T18:11:29.517Z,1.30
2022-08-09T18:16:05.433Z,1.30
2022-08-09T18:20:59.880Z,1.00
2022-08-09T18:24:15.852Z,1.10
2022-08-09T18:30:34.645Z,1.40
2022-08-09T18:32:40.012Z,1.33
2022-08-09T18:36:43.853Z,1.17
2022-08-09T18:40:53.427Z,1.20
2022-08-09T18:44:55.511Z,1.20
2022-08-09T18:49:02.065Z,1.60
2022-08-09T18:53:04.718Z,1.40
2022-08-09T18:57:15.578Z,1.13
2022-08-09T19:01:17.682Z,1.20
2022-08-09T19:05:41.379Z,1.48
2022-08-09T19:10:14.280Z,1.33
2022-08-09T19:14:07.745Z,1.50
2022-08-09T19:18:17.105Z,1.50
2022-08-09T19:22:35.182Z,1.38
2022-08-09T19:26:38.370Z,1.30
2022-08-09T19:30:44.615Z,1.33
2022-08-09T19:34:52.613Z,1.30
2022-08-09T19:38:56.049Z,1.40
2022-08-09T19:42:58.096Z,1.27
2022-08-09T19:47:01.959Z,1.40
2022-08-09T19:51:04.607Z,1.70
2022-08-09T19:55:07.318Z,1.30
2022-08-09T19:59:39.786Z,1.30
2022-08-09T20:04:18.640Z,1.50
2022-08-09T20:07:59.422Z,1.40
2022-08-09T20:12:02.944Z,1.40
2022-08-09T20:16:34.154Z,1.27
2022-08-09T20:20:30.706Z,1.48
2022-08-09T20:24:34.241Z,1.48
2022-08-09T20:28:48.059Z,1.63
2022-08-09T20:32:52.651Z,1.40
2022-08-09T20:36:55.388Z,1.17
2022-08-09T20:40:57.466Z,1.40
2022-08-09T20:45:56.072Z,1.65
2022-08-09T20:49:23.238Z,1.55
2022-08-09T20:53:36.311Z,1.80
2022-08-09T20:58:08.249Z,1.90
2022-08-09T21:02:02.823Z,1.70
2022-08-09T21:06:05.039Z,1.80
2022-08-09T21:10:07.674Z,1.60
2022-08-09T21:14:10.016Z,1.80
2022-08-09T21:18:25.393Z,1.65
2022-08-09T21:22:38.451Z,2.15
2022-08-09T21:26:41.396Z,1.70
2022-08-09T21:30:44.278Z,1.60
2022-08-09T21:34:49.106Z,1.70
2022-08-09T21:38:58.012Z,1.50
2022-08-09T21:43:01.190Z,1.98
2022-08-09T21:47:07.722Z,1.67
2022-08-09T21:51:13.439Z,1.50
2022-08-09T21:55:20.651Z,2.05
2022-08-09T21:59:23.242Z,1.77
2022-08-09T22:03:27.887Z,1.70
2022-08-09T22:07:41.549Z,1.70
2022-08-09T22:12:18.165Z,1.70
2022-08-09T22:16:14.835Z,1.77
2022-08-09T22:20:21.964Z,1.70
2022-08-09T22:24:29.537Z,1.70
2022-08-09T22:28:33.219Z,1.80
2022-08-09T22:32:35.441Z,1.85
2022-08-09T22:36:46.108Z,1.63
2022-08-09T22:40:57.583Z,2.00
2022-08-09T22:48:12.116Z,1.98
2022-08-09T22:49:23.512Z,1.85
2022-08-09T22:53:25.629Z,1.85
2022-08-09T22:57:36.493Z,1.73
2022-08-09T23:01:41.642Z,1.90
2022-08-09T23:05:45.853Z,1.70
2022-08-09T23:09:48.097Z,1.70
2022-08-09T23:13:52.825Z,1.90
2022-08-09T23:17:55.849Z,1.60
2022-08-09T23:21:57.936Z,1.73
2022-08-09T23:26:00.794Z,1.92
2022-08-09T23:30:04.040Z,1.90
2022-08-09T23:34:06.148Z,1.90
2022-08-09T23:38:08.395Z,1.98
2022-08-09T23:42:10.427Z,1.88
2022-08-09T23:46:12.552Z,2.30
2022-08-09T23:50:14.568Z,1.80
2022-08-09T23:54:16.600Z,2.17
2022-08-09T23:58:27.540Z,2.17
